マカオ の空港の天気 - METARとTAF

マカオ国際空港 ( VMMC / MFM ) - マカオ タイパ島
飛行場実況気象(Metar)
観測時間10/24 10:00 CST (10/24 02:00 UTC)
風向・風速北 9m/s
視程10km以上
天気現象
少しの雲 雲底高度 490m
全天の4割程度の雲 雲底高度 1070m
気温20℃
湿度78%
気圧1021hPa
METARVMMC 240200Z 35017KT 9999 FEW016 SCT035 20/16 Q1021 NOSIG
過去の天気等 Google飛行場航空写真 Wunderground天気予報

過去48時間のMETAR

飛行場予報(TAF)
発表時間: 10/24 07:00 CST (10/23 23:00 UTC)
予報対象時間: 24日8時 CST ~ 25日14時 CST
風向・風速北 8m/s
視程10km以上
少しの雲 雲底高度 460m
全天の4割程度の雲 雲底高度 1070m
TAF VMMC 232300Z 2400/2506 36015KT 9999 FEW015 SCT035